Time;durP1;ratioP1;P1;durP2;ratioP2;P2;SDS_P1;SDS_P2;PMS_P1;PMS_P2;Temp;Humidity;BMP_temperature;BMP_pressure;BME280_temperature;BME280_humidity;BME280_pressure;Samples;Min_cycle;Max_cycle;Signal;HPM_P1;HPM_P2
2022/08/03 00:02:17;;;;;;;3.62;2.10;;;;;;;25.08;41.08;99653.88;4452996;32;33887;-61
2022/08/03 00:04:45;;;;;;;3.50;2.08;;;;;;;25.10;41.34;99655.38;4459100;32;35313;-61
2022/08/03 00:07:13;;;;;;;3.28;2.00;;;;;;;24.97;41.53;99658.09;4460331;32;34609;-60
2022/08/03 00:09:40;;;;;;;2.80;1.60;;;;;;;25.03;41.61;99654.50;4465003;32;33600;-61
2022/08/03 00:12:08;;;;;;;3.25;1.70;;;;;;;24.89;42.03;99663.78;4465773;32;33863;-61
2022/08/03 00:14:36;;;;;;;4.03;2.05;;;;;;;25.03;41.65;99662.72;4452599;32;33888;-61
2022/08/03 00:17:03;;;;;;;3.08;1.87;;;;;;;24.95;41.77;99656.63;4458897;32;32703;-61
2022/08/03 00:19:31;;;;;;;3.53;2.10;;;;;;;24.92;41.67;99657.87;4454570;32;33716;-61
2022/08/03 00:21:59;;;;;;;3.83;2.20;;;;;;;24.94;41.76;99663.97;4463873;32;33884;-60
2022/08/03 00:24:26;;;;;;;5.32;2.33;;;;;;;24.83;42.29;99665.44;4463237;32;34083;-60
2022/08/03 00:26:54;;;;;;;5.03;2.50;;;;;;;24.74;42.56;99668.59;4466278;32;33897;-60
2022/08/03 00:29:22;;;;;;;5.28;2.28;;;;;;;24.94;41.89;99660.41;4461756;32;33404;-61
2022/08/03 00:31:49;;;;;;;3.87;2.10;;;;;;;24.94;41.89;99660.41;4455642;32;33851;-62
2022/08/03 00:34:19;;;;;;;4.03;2.30;;;;;;;24.72;42.32;99665.22;4453846;32;34694;-61
2022/08/03 00:37:06;;;;;;;4.78;2.75;;;;;;;24.77;42.16;99662.72;4454478;32;35140;-61
2022/08/03 00:39:34;;;;;;;3.42;2.12;;;;;;;24.73;42.28;99664.19;4457777;32;33280;-60
2022/08/03 00:42:03;;;;;;;6.35;2.30;;;;;;;24.57;42.70;99658.06;4458377;32;34939;-62
2022/08/03 00:44:31;;;;;;;3.03;2.20;;;;;;;24.31;43.50;99661.53;4467862;32;33657;-62
2022/08/03 00:46:58;;;;;;;5.87;2.53;;;;;;;24.36;43.53;99661.75;4467299;32;33761;-60
2022/08/03 00:49:26;;;;;;;3.72;2.17;;;;;;;24.14;43.95;99662.94;4452137;32;33058;-60
2022/08/03 00:51:54;;;;;;;4.57;2.47;;;;;;;24.01;44.33;99669.19;4457307;32;33684;-61
2022/08/03 00:54:22;;;;;;;5.53;2.50;;;;;;;23.87;44.71;99673.75;4445856;32;33765;-62
2022/08/03 00:56:50;;;;;;;3.28;2.17;;;;;;;24.20;43.92;99667.59;4445925;32;33277;-60
2022/08/03 00:59:27;;;;;;;3.87;2.33;;;;;;;24.16;44.10;99663.59;4447885;32;32631;-60
2022/08/03 01:01:55;;;;;;;6.18;2.90;;;;;;;24.07;44.17;99665.66;4458495;32;34744;-60
2022/08/03 01:04:22;;;;;;;4.35;2.05;;;;;;;24.09;44.01;99660.84;4465711;32;35295;-61
2022/08/03 01:07:00;;;;;;;3.95;2.40;;;;;;;24.13;44.12;99664.84;4461501;32;35242;-61
2022/08/03 01:09:40;;;;;;;4.78;2.47;;;;;;;24.13;44.13;99661.25;4459723;32;33644;-62
2022/08/03 01:12:39;;;;;;;4.10;2.67;;;;;;;23.99;44.34;99656.81;4445933;32;33790;-61
2022/08/03 01:15:27;;;;;;;4.93;2.60;;;;;;;24.11;44.10;99668.84;4462507;32;34103;-61
2022/08/03 01:17:57;;;;;;;4.62;2.67;;;;;;;24.17;44.09;99670.72;4462737;32;33791;-60
2022/08/03 01:20:26;;;;;;;4.25;2.47;;;;;;;24.27;43.75;99671.22;4461821;32;32420;-61
2022/08/03 01:23:22;;;;;;;4.57;2.75;;;;;;;24.22;43.94;99673.72;4444653;32;33796;-61
2022/08/03 01:26:11;;;;;;;4.68;2.85;;;;;;;24.21;44.02;99666.56;4461030;32;36814;-60
2022/08/03 01:29:16;;;;;;;4.28;2.67;;;;;;;24.18;44.05;99667.81;4459875;32;34989;-61
2022/08/03 01:31:52;;;;;;;4.03;2.17;;;;;;;24.28;43.91;99669.31;4454478;32;33552;-60
2022/08/03 01:34:44;;;;;;;4.47;2.87;;;;;;;24.26;43.92;99663.19;4447614;32;33824;-60
2022/08/03 01:37:15;;;;;;;4.50;2.87;;;;;;;23.77;45.23;99664.25;4446619;32;34100;-60
2022/08/03 01:39:44;;;;;;;4.65;2.87;;;;;;;24.03;44.64;99666.28;4445065;32;34670;-60
2022/08/03 01:42:12;;;;;;;4.80;2.90;;;;;;;24.17;44.75;99665.25;4455765;32;34499;-60
2022/08/03 01:44:42;;;;;;;4.60;2.70;;;;;;;24.22;44.75;99670.97;4436304;32;32327;-61
2022/08/03 01:47:11;;;;;;;5.25;3.37;;;;;;;24.22;44.67;99661.94;4458388;32;34987;-60
2022/08/03 01:49:43;;;;;;;7.78;2.87;;;;;;;24.11;44.75;99663.38;4431744;32;33714;-61
2022/08/03 01:52:13;;;;;;;4.90;2.90;;;;;;;24.24;44.46;99662.56;4462938;32;34351;-60
2022/08/03 01:54:43;;;;;;;5.50;2.97;;;;;;;24.13;44.70;99669.47;4453225;32;33890;-60
2022/08/03 01:57:12;;;;;;;4.50;2.60;;;;;;;24.00;45.05;99664.78;4436254;32;33172;-61
2022/08/03 01:59:41;;;;;;;5.03;3.10;;;;;;;24.17;44.40;99662.53;4452246;32;35075;-60
2022/08/03 02:02:11;;;;;;;5.43;2.80;;;;;;;24.12;44.57;99665.06;4449872;32;33425;-61
2022/08/03 02:05:00;;;;;;;5.28;2.65;;;;;;;24.06;44.69;99668.59;4463405;32;33062;-62
2022/08/03 02:07:29;;;;;;;4.18;2.65;;;;;;;23.96;45.27;99668.16;4448477;32;35144;-60
2022/08/03 02:09:57;;;;;;;3.87;2.37;;;;;;;24.07;44.94;99664.81;4461366;32;34649;-60
2022/08/03 02:12:29;;;;;;;9.68;3.28;;;;;;;24.07;45.05;99668.38;4444540;32;32336;-60
2022/08/03 02:14:58;;;;;;;5.65;3.30;;;;;;;23.93;45.36;99672.97;4443773;32;34765;-60
2022/08/03 02:17:27;;;;;;;5.15;2.75;;;;;;;23.95;45.13;99667.31;4450433;32;33378;-60
2022/08/03 02:20:07;;;;;;;5.25;3.30;;;;;;;23.81;45.60;99666.37;4448949;32;34651;-59
2022/08/03 02:22:38;;;;;;;4.87;3.03;;;;;;;23.87;45.51;99671.03;4455486;32;33492;-62
2022/08/03 02:25:10;;;;;;;4.45;2.83;;;;;;;23.82;45.66;99667.22;4446135;32;34824;-60
2022/08/03 02:27:42;;;;;;;5.55;3.80;;;;;;;23.49;46.64;99671.41;4464835;32;34562;-61
2022/08/03 02:30:11;;;;;;;5.37;2.92;;;;;;;23.47;46.76;99668.06;4440965;32;33475;-61
2022/08/03 02:32:41;;;;;;;6.78;3.53;;;;;;;23.50;46.97;99669.56;4451389;32;33456;-60
2022/08/03 02:35:11;;;;;;;5.97;3.80;;;;;;;23.61;46.60;99679.91;4460129;32;34951;-60
2022/08/03 02:37:45;;;;;;;7.85;3.67;;;;;;;23.75;46.38;99669.06;4452897;32;34232;-61
2022/08/03 02:40:18;;;;;;;7.60;4.30;;;;;;;23.56;46.92;99670.63;4431995;32;33487;-61
2022/08/03 02:42:49;;;;;;;6.07;3.72;;;;;;;23.68;46.59;99672.63;4444178;32;33588;-60
2022/08/03 02:45:17;;;;;;;5.82;3.83;;;;;;;23.76;46.54;99674.34;4444954;32;34125;-60
2022/08/03 02:47:45;;;;;;;7.97;3.80;;;;;;;23.66;46.86;99674.69;4448144;32;35177;-60
2022/08/03 02:50:22;;;;;;;7.65;3.90;;;;;;;23.80;46.75;99672.06;4440515;32;34325;-59
2022/08/03 02:52:51;;;;;;;5.70;3.58;;;;;;;23.76;46.78;99668.88;4439971;32;33456;-62
2022/08/03 02:55:21;;;;;;;5.55;3.95;;;;;;;23.79;46.86;99675.81;4445868;32;34768;-62
2022/08/03 02:57:50;;;;;;;5.85;3.65;;;;;;;23.73;47.02;99677.50;4457890;32;35158;-63
2022/08/03 03:00:18;;;;;;;5.35;3.72;;;;;;;23.76;47.16;99673.50;4458845;32;33342;-64
2022/08/03 03:02:57;;;;;;;5.40;3.53;;;;;;;23.78;47.13;99672.25;4444483;32;33444;-63
2022/08/03 03:05:25;;;;;;;7.30;3.85;;;;;;;23.91;46.97;99671.47;4435635;32;34085;-62
2022/08/03 03:08:16;;;;;;;5.22;3.30;;;;;;;23.87;47.02;99675.66;4447273;32;34998;-62
2022/08/03 03:10:47;;;;;;;6.60;4.40;;;;;;;23.79;47.00;99673.94;4452956;32;34617;-62
2022/08/03 03:13:21;;;;;;;7.72;3.92;;;;;;;23.82;47.01;99676.28;4453847;32;33099;-64
2022/08/03 03:15:50;;;;;;;7.18;3.87;;;;;;;23.65;47.18;99672.97;4446686;32;34135;-60
2022/08/03 03:18:18;;;;;;;6.40;4.10;;;;;;;23.67;47.09;99670.91;4445086;32;35243;-60
2022/08/03 03:20:50;;;;;;;6.85;4.10;;;;;;;23.68;47.30;99669.00;4451576;32;33276;-62
2022/08/03 03:23:20;;;;;;;6.68;4.22;;;;;;;23.64;47.51;99667.72;4454672;32;33531;-61
2022/08/03 03:25:49;;;;;;;6.80;4.40;;;;;;;23.62;47.76;99670.66;4450499;32;33123;-63
2022/08/03 03:28:16;;;;;;;6.18;4.20;;;;;;;23.60;48.06;99672.75;4446941;32;34006;-62
2022/08/03 03:30:44;;;;;;;7.18;4.93;;;;;;;23.46;48.42;99671.81;4462108;32;33500;-64
2022/08/03 03:33:22;;;;;;;6.68;4.60;;;;;;;23.41;48.55;99678.94;4464507;32;33639;-64
2022/08/03 03:35:50;;;;;;;5.57;3.95;;;;;;;23.59;47.97;99673.78;4458825;32;32977;-62
2022/08/03 03:38:19;;;;;;;6.05;3.83;;;;;;;23.60;48.00;99682.84;4459170;32;34025;-65
2022/08/03 03:40:47;;;;;;;6.85;4.90;;;;;;;23.63;47.99;99676.97;4449006;32;34126;-62
2022/08/03 03:43:17;;;;;;;6.55;4.97;;;;;;;23.61;48.53;99679.91;4456243;32;33273;-65
2022/08/03 03:45:46;;;;;;;6.95;4.68;;;;;;;23.65;48.66;99681.19;4460839;32;33627;-63
2022/08/03 03:48:14;;;;;;;7.03;5.18;;;;;;;23.71;48.54;99671.38;4465937;32;33976;-63
2022/08/03 03:50:42;;;;;;;6.30;3.95;;;;;;;23.60;48.97;99677.38;4460823;32;33338;-65
2022/08/03 03:53:11;;;;;;;9.60;5.10;;;;;;;23.71;48.75;99679.56;4444935;32;34302;-64
2022/08/03 03:55:39;;;;;;;6.90;4.32;;;;;;;23.75;48.48;99675.38;4461050;32;35048;-63
2022/08/03 03:58:27;;;;;;;6.70;4.22;;;;;;;23.66;48.62;99668.38;4451000;32;35260;-65
2022/08/03 04:00:55;;;;;;;6.68;4.43;;;;;;;23.76;48.43;99677.09;4455555;32;33761;-64
2022/08/03 04:03:23;;;;;;;7.95;5.00;;;;;;;23.67;48.60;99678.25;4450585;32;33286;-63
2022/08/03 04:11:38;;;;;;;7.22;4.78;;;;;;;23.90;48.11;99688.94;4461427;32;33585;-63
2022/08/03 04:14:19;;;;;;;6.90;4.68;;;;;;;24.03;48.14;99688.16;4439956;32;33128;-62
2022/08/03 04:16:50;;;;;;;6.72;5.00;;;;;;;24.07;48.19;99693.00;4446319;32;32591;-63
2022/08/03 04:19:23;;;;;;;7.60;5.15;;;;;;;24.12;48.30;99693.22;4460783;32;33969;-64
2022/08/03 04:21:55;;;;;;;6.55;4.90;;;;;;;24.22;48.39;99698.31;4448447;32;33791;-63
2022/08/03 04:24:27;;;;;;;7.30;4.80;;;;;;;24.18;48.51;99697.88;4441340;32;31965;-64
2022/08/03 04:26:55;;;;;;;7.55;5.07;;;;;;;24.21;48.62;99710.31;4459111;32;34772;-64
2022/08/03 04:29:23;;;;;;;6.80;4.97;;;;;;;24.24;48.57;99706.31;4438940;32;33858;-62
2022/08/03 04:31:53;;;;;;;9.32;5.47;;;;;;;24.20;48.86;99705.03;4451073;32;33948;-63
2022/08/03 04:34:21;;;;;;;6.90;5.55;;;;;;;24.21;49.08;99713.06;4454188;32;33461;-62
2022/08/03 04:36:49;;;;;;;6.62;4.68;;;;;;;24.32;49.02;99717.09;4459493;32;34571;-64
2022/08/03 04:39:25;;;;;;;8.20;5.72;;;;;;;24.53;48.72;99707.94;4440435;32;33726;-63
2022/08/03 04:41:55;;;;;;;8.20;5.22;;;;;;;24.65;48.50;99717.22;4447910;32;33710;-62
2022/08/03 04:44:40;;;;;;;6.85;5.10;;;;;;;24.84;48.08;99716.41;4444134;32;34803;-63
2022/08/03 04:47:08;;;;;;;8.93;5.30;;;;;;;24.86;48.18;99711.56;4437831;32;32789;-63
2022/08/03 04:49:37;;;;;;;9.40;5.70;;;;;;;25.08;47.72;99714.13;4455193;32;34050;-64
2022/08/03 04:52:06;;;;;;;11.35;6.22;;;;;;;25.25;47.48;99720.91;4455158;32;34341;-64
2022/08/03 04:54:42;;;;;;;7.75;5.28;;;;;;;25.31;47.43;99727.44;4441591;32;33447;-63
2022/08/03 04:57:17;;;;;;;8.48;5.72;;;;;;;25.49;47.23;99733.13;4458887;32;35027;-64
2022/08/03 04:59:53;;;;;;;7.05;5.37;;;;;;;25.58;47.07;99733.72;4459279;32;35024;-63
2022/08/03 05:02:30;;;;;;;8.68;5.45;;;;;;;25.77;46.96;99737.50;4443177;32;32067;-63
2022/08/03 05:04:59;;;;;;;7.90;5.95;;;;;;;25.86;47.01;99746.38;4456056;32;32420;-62
2022/08/03 05:07:26;;;;;;;9.55;5.60;;;;;;;25.98;47.15;99744.66;4454457;32;34722;-62
2022/08/03 05:10:05;;;;;;;6.90;4.87;;;;;;;26.09;46.86;99746.72;4464163;32;34063;-61
2022/08/03 05:12:44;;;;;;;6.75;5.03;;;;;;;26.16;46.49;99746.72;4462360;32;33172;-63
2022/08/03 05:15:12;;;;;;;8.07;5.12;;;;;;;26.35;46.04;99745.78;4459142;32;32807;-62
2022/08/03 05:17:40;;;;;;;8.80;5.62;;;;;;;26.57;45.94;99746.34;4460174;32;34939;-62
2022/08/03 05:20:08;;;;;;;8.38;5.10;;;;;;;26.45;45.65;99745.31;4452477;32;34113;-62
2022/08/03 05:22:36;;;;;;;7.53;5.43;;;;;;;26.72;44.98;99751.56;4453302;32;34165;-62
2022/08/03 05:25:04;;;;;;;9.40;5.85;;;;;;;26.92;44.75;99748.69;4461591;32;33228;-61
2022/08/03 05:27:31;;;;;;;8.10;5.87;;;;;;;26.95;44.69;99753.75;4460854;32;33629;-62
2022/08/03 05:30:00;;;;;;;10.73;6.28;;;;;;;26.57;45.52;99751.00;4451822;32;32730;-62
2022/08/03 05:32:48;;;;;;;9.63;5.87;;;;;;;26.74;45.15;99743.09;4454540;32;33786;-62
2022/08/03 05:35:16;;;;;;;11.32;6.00;;;;;;;26.85;45.01;99756.16;4438408;32;31907;-62
2022/08/03 05:38:03;;;;;;;7.32;5.75;;;;;;;26.80;45.08;99761.44;4453619;32;35811;-62
2022/08/03 05:40:32;;;;;;;8.50;6.35;;;;;;;26.89;44.80;99760.13;4455045;32;33979;-63
2022/08/03 05:43:00;;;;;;;7.20;5.75;;;;;;;26.92;45.20;99757.78;4452363;32;32794;-62
2022/08/03 05:45:28;;;;;;;7.62;5.57;;;;;;;27.00;45.07;99753.94;4464042;32;33330;-62
2022/08/03 05:47:55;;;;;;;6.90;5.93;;;;;;;27.05;45.22;99770.56;4458369;32;34025;-61
2022/08/03 05:50:23;;;;;;;7.43;4.65;;;;;;;27.12;44.93;99765.03;4457050;32;33898;-61
2022/08/03 05:52:54;;;;;;;10.02;5.40;;;;;;;27.16;44.77;99763.59;4452155;32;32279;-61
2022/08/03 05:55:23;;;;;;;6.97;5.68;;;;;;;27.48;44.47;99764.37;4455190;32;32337;-62
2022/08/03 05:57:50;;;;;;;9.90;5.20;;;;;;;27.50;44.48;99764.16;4455775;32;33504;-61
2022/08/03 06:00:21;;;;;;;7.53;5.40;;;;;;;27.56;44.39;99766.00;4446427;32;35403;-62
2022/08/03 06:02:52;;;;;;;7.53;5.15;;;;;;;27.40;44.45;99765.50;4447376;32;33544;-62
2022/08/03 06:05:19;;;;;;;8.43;6.28;;;;;;;27.30;44.09;99769.81;4470166;32;34652;-62
2022/08/03 06:07:47;;;;;;;7.95;5.65;;;;;;;27.41;43.83;99775.41;4455538;32;33631;-62
2022/08/03 06:10:15;;;;;;;8.65;6.30;;;;;;;27.57;44.36;99773.16;4455720;32;33809;-61
2022/08/03 06:13:02;;;;;;;8.95;5.78;;;;;;;27.55;44.24;99772.56;4462665;32;35084;-63
2022/08/03 06:15:32;;;;;;;8.05;5.72;;;;;;;27.79;43.21;99781.88;4457253;32;32294;-62
2022/08/03 06:17:59;;;;;;;8.45;5.72;;;;;;;27.72;43.06;99775.59;4454882;32;34992;-62
2022/08/03 06:20:29;;;;;;;8.27;6.53;;;;;;;27.28;43.92;99786.50;4452187;32;33825;-61
2022/08/03 06:22:56;;;;;;;7.78;6.18;;;;;;;26.95;44.62;99779.31;4458039;32;33749;-62
2022/08/03 06:25:27;;;;;;;7.50;5.78;;;;;;;27.20;43.88;99774.97;4458097;32;34260;-62
2022/08/03 06:27:55;;;;;;;8.68;6.28;;;;;;;27.26;44.00;99763.91;4458018;32;33704;-62
2022/08/03 06:30:23;;;;;;;9.18;6.45;;;;;;;27.22;43.52;99784.66;4452167;32;33034;-61
2022/08/03 06:32:51;;;;;;;9.25;6.15;;;;;;;27.52;43.86;99776.59;4458916;32;32448;-63
2022/08/03 06:35:19;;;;;;;8.95;6.40;;;;;;;27.56;43.12;99777.00;4467473;32;33224;-61
2022/08/03 06:37:49;;;;;;;10.98;6.53;;;;;;;27.33;43.90;99778.44;4457128;32;34006;-61
2022/08/03 06:40:19;;;;;;;11.73;6.87;;;;;;;26.64;44.57;99782.00;4461936;32;32740;-62
2022/08/03 06:42:51;;;;;;;8.48;6.70;;;;;;;26.24;45.89;99795.87;4456577;32;34325;-61
2022/08/03 06:45:18;;;;;;;7.78;6.45;;;;;;;26.60;44.55;99789.00;4447781;32;31330;-62
2022/08/03 06:47:46;;;;;;;9.27;5.82;;;;;;;27.20;43.52;99788.69;4465792;32;35460;-62
2022/08/03 06:50:14;;;;;;;7.65;6.55;;;;;;;27.47;43.12;99795.66;4464270;32;33902;-62
2022/08/03 06:52:45;;;;;;;13.18;7.20;;;;;;;27.64;42.91;99799.56;4464576;32;32513;-61
2022/08/03 06:55:13;;;;;;;8.35;6.07;;;;;;;27.54;42.07;99799.19;4461419;32;33222;-62
2022/08/03 06:57:41;;;;;;;10.23;6.82;;;;;;;27.56;42.13;99790.75;4463037;32;32311;-62
2022/08/03 07:00:10;;;;;;;8.52;6.68;;;;;;;27.51;42.49;99788.69;4450460;32;32506;-61
2022/08/03 07:02:39;;;;;;;8.80;6.15;;;;;;;27.33;42.88;99796.84;4464741;32;34959;-61
2022/08/03 07:05:08;;;;;;;9.68;6.37;;;;;;;27.53;42.72;99793.94;4452146;32;33288;-62
2022/08/03 07:07:36;;;;;;;8.15;6.53;;;;;;;27.96;42.13;99793.13;4457258;32;34275;-62
2022/08/03 07:10:05;;;;;;;9.48;6.47;;;;;;;27.95;41.40;99797.81;4461209;32;33720;-62
2022/08/03 07:12:33;;;;;;;9.27;6.57;;;;;;;27.63;42.34;99795.09;4466304;32;33730;-61
2022/08/03 07:15:01;;;;;;;9.88;6.00;;;;;;;27.92;41.76;99791.91;4467231;32;33338;-62
2022/08/03 07:17:33;;;;;;;7.85;6.35;;;;;;;27.56;42.59;99793.50;4462870;32;34020;-61
2022/08/03 07:20:05;;;;;;;7.80;6.20;;;;;;;27.92;41.95;99786.41;4454125;32;34207;-61
2022/08/03 07:22:33;;;;;;;7.65;6.28;;;;;;;27.47;42.51;99798.41;4465596;32;33867;-62
2022/08/03 07:25:01;;;;;;;8.55;6.40;;;;;;;27.50;42.99;99800.72;4458990;32;33581;-61
2022/08/03 07:27:29;;;;;;;9.30;6.12;;;;;;;27.79;41.82;99795.63;4457612;32;33754;-62
2022/08/03 07:29:57;;;;;;;8.80;6.18;;;;;;;28.24;41.22;99795.37;4442770;32;32838;-62
2022/08/03 07:32:25;;;;;;;10.82;6.75;;;;;;;28.12;40.83;99798.03;4444915;32;32000;-62
2022/08/03 07:34:53;;;;;;;10.02;6.00;;;;;;;28.15;40.99;99785.75;4454308;32;33488;-62
2022/08/03 07:37:28;;;;;;;9.85;6.57;;;;;;;28.26;40.62;99794.09;4455459;32;34933;-61
2022/08/03 07:39:56;;;;;;;9.18;5.97;;;;;;;28.33;41.34;99791.25;4444345;32;32277;-61
2022/08/03 07:42:24;;;;;;;8.45;6.65;;;;;;;28.15;41.16;99785.75;4463626;32;33920;-62
2022/08/03 07:44:52;;;;;;;8.75;6.60;;;;;;;28.32;40.65;99795.94;4460473;32;32110;-62
2022/08/03 07:47:25;;;;;;;9.68;6.68;;;;;;;28.45;40.91;99792.22;4456442;32;35066;-62
2022/08/03 07:50:04;;;;;;;9.40;6.80;;;;;;;28.59;40.11;99792.03;4441572;32;33967;-62
2022/08/03 07:52:47;;;;;;;8.30;6.50;;;;;;;28.36;40.62;99788.06;4463952;32;34231;-62
2022/08/03 07:55:16;;;;;;;8.77;6.65;;;;;;;28.24;40.45;99795.37;4463006;32;34532;-61
2022/08/03 07:57:44;;;;;;;10.68;6.40;;;;;;;28.30;40.41;99789.81;4462693;32;33981;-61
2022/08/03 08:00:17;;;;;;;8.45;6.47;;;;;;;28.25;40.55;99794.31;4465425;32;34008;-62
2022/08/03 08:02:45;;;;;;;7.62;6.22;;;;;;;28.48;41.29;99786.25;4452887;32;32412;-61
2022/08/03 08:05:12;;;;;;;9.05;5.85;;;;;;;28.78;40.03;99786.25;4456929;32;33359;-63
2022/08/03 08:07:40;;;;;;;9.27;6.40;;;;;;;28.38;40.76;99788.69;4465712;32;34904;-61
2022/08/03 08:10:08;;;;;;;8.68;6.65;;;;;;;28.29;40.48;99787.28;4454674;32;34187;-62
2022/08/03 08:12:37;;;;;;;8.95;6.80;;;;;;;28.72;40.76;99786.34;4455718;32;33744;-62
2022/08/03 08:15:06;;;;;;;8.50;5.72;;;;;;;28.82;40.27;99792.16;4466160;32;31891;-62
2022/08/03 08:17:42;;;;;;;8.07;5.45;;;;;;;28.99;38.78;99784.94;4466342;32;32479;-61
2022/08/03 08:20:11;;;;;;;9.65;6.20;;;;;;;28.79;39.85;99790.69;4453512;32;34142;-62
2022/08/03 08:22:39;;;;;;;7.70;5.78;;;;;;;29.06;39.63;99781.28;4458800;32;33865;-61
2022/08/03 08:25:07;;;;;;;11.48;5.70;;;;;;;28.78;39.36;99788.19;4454827;32;33066;-62
2022/08/03 08:27:46;;;;;;;10.82;6.32;;;;;;;29.06;39.20;99789.53;4460851;32;32434;-62
2022/08/03 08:30:33;;;;;;;7.97;6.10;;;;;;;29.00;39.33;99789.38;4453596;32;35203;-62
2022/08/03 08:33:01;;;;;;;9.05;5.95;;;;;;;29.20;38.82;99789.09;4463167;32;33657;-62
2022/08/03 08:35:29;;;;;;;7.75;5.47;;;;;;;29.19;38.88;99786.56;4454361;32;33116;-62
2022/08/03 08:37:59;;;;;;;8.50;6.07;;;;;;;29.44;39.32;99791.91;4456918;32;32314;-62
2022/08/03 08:40:31;;;;;;;8.40;5.90;;;;;;;29.22;38.67;99784.19;4444503;32;33703;-62
2022/08/03 08:43:01;;;;;;;7.03;4.70;;;;;;;29.71;37.91;99781.28;4463278;32;34091;-63
2022/08/03 08:45:28;;;;;;;7.18;5.70;;;;;;;29.62;37.22;99779.97;4444583;32;31835;-62
2022/08/03 08:47:58;;;;;;;7.78;6.25;;;;;;;29.63;37.11;99782.50;4442225;32;33952;-62
2022/08/03 08:50:31;;;;;;;9.73;6.10;;;;;;;29.61;37.95;99784.62;4445585;32;34192;-62
2022/08/03 08:53:02;;;;;;;8.35;6.40;;;;;;;29.70;37.53;99777.69;4450189;32;33862;-62
2022/08/03 08:55:30;;;;;;;9.13;5.70;;;;;;;29.46;37.91;99779.53;4438352;32;33166;-62
2022/08/03 08:58:21;;;;;;;6.82;5.60;;;;;;;29.91;37.46;99781.75;4454487;32;34628;-62
2022/08/03 09:00:49;;;;;;;8.60;6.47;;;;;;;29.99;37.66;99782.50;4456084;32;35138;-62
2022/08/03 09:03:17;;;;;;;6.32;5.00;;;;;;;29.98;37.76;99781.63;4446143;32;32343;-63
2022/08/03 09:05:58;;;;;;;7.15;5.68;;;;;;;30.30;37.31;99771.06;4459313;32;32014;-61
2022/08/03 09:08:26;;;;;;;7.57;5.62;;;;;;;30.34;36.33;99772.28;4454578;32;33822;-62
2022/08/03 09:10:53;;;;;;;7.72;5.20;;;;;;;30.25;36.57;99767.38;4455676;32;34106;-62
2022/08/03 09:13:21;;;;;;;8.85;5.50;;;;;;;30.44;36.50;99771.66;4461335;32;33907;-61
2022/08/03 09:16:11;;;;;;;7.40;5.07;;;;;;;30.29;35.81;99769.38;4465922;32;33249;-62
2022/08/03 09:18:41;;;;;;;7.07;5.00;;;;;;;30.11;36.41;99766.75;4451757;32;32266;-62
2022/08/03 09:21:22;;;;;;;8.18;5.22;;;;;;;30.40;35.42;99770.44;4441468;32;32905;-62
2022/08/03 09:24:01;;;;;;;7.25;4.70;;;;;;;30.97;34.21;99769.66;4452682;32;34645;-62
2022/08/03 09:26:34;;;;;;;8.77;5.40;;;;;;;30.92;34.18;99762.13;4435317;32;31510;-62
2022/08/03 09:29:05;;;;;;;8.07;5.45;;;;;;;31.39;34.36;99761.03;4456320;32;34531;-62
2022/08/03 09:31:42;;;;;;;7.55;5.10;;;;;;;31.60;33.77;99767.75;4453179;32;32407;-63
2022/08/03 09:34:13;;;;;;;7.78;4.60;;;;;;;31.63;32.99;99758.94;4451852;32;35061;-63
2022/08/03 09:36:42;;;;;;;6.25;4.60;;;;;;;31.45;34.20;99751.72;4455743;32;34447;-62
2022/08/03 09:39:17;;;;;;;5.97;3.97;;;;;;;31.81;32.19;99752.28;4440909;32;32627;-62
2022/08/03 09:42:07;;;;;;;7.43;5.28;;;;;;;31.71;32.23;99753.81;4444186;32;32324;-62
2022/08/03 09:44:37;;;;;;;6.80;4.93;;;;;;;31.53;32.96;99752.16;4460290;32;34630;-62
2022/08/03 09:47:05;;;;;;;8.23;5.95;;;;;;;31.83;32.53;99745.41;4446922;32;32759;-62
2022/08/03 09:49:33;;;;;;;10.23;4.97;;;;;;;31.87;32.27;99748.50;4467188;32;32615;-62
2022/08/03 09:52:10;;;;;;;6.72;4.62;;;;;;;31.91;31.62;99749.69;4456117;32;35133;-62
2022/08/03 09:55:00;;;;;;;5.85;4.22;;;;;;;31.88;32.58;99747.41;4461405;32;33755;-63
2022/08/03 09:57:31;;;;;;;6.80;3.95;;;;;;;32.45;30.64;99742.41;4469737;32;34400;-63
2022/08/03 10:00:13;;;;;;;7.32;4.25;;;;;;;32.58;30.55;99749.50;4461955;32;33723;-62
2022/08/03 10:02:42;;;;;;;6.90;4.55;;;;;;;32.54;31.04;99740.03;4440693;32;33636;-63
2022/08/03 10:05:11;;;;;;;7.10;4.60;;;;;;;32.81;30.68;99730.91;4450060;32;32055;-62
2022/08/03 10:07:48;;;;;;;7.28;5.00;;;;;;;33.22;30.19;99731.31;4456492;32;33455;-63
2022/08/03 10:10:17;;;;;;;7.32;4.97;;;;;;;33.49;29.85;99731.28;4457578;32;33876;-62
2022/08/03 10:12:59;;;;;;;7.05;4.82;;;;;;;33.59;29.70;99728.63;4458422;32;34804;-62
2022/08/03 10:15:27;;;;;;;7.72;5.07;;;;;;;33.57;28.91;99726.09;4449583;32;33452;-62
2022/08/03 10:18:15;;;;;;;6.80;4.70;;;;;;;33.48;28.86;99719.34;4458747;32;33892;-63
2022/08/03 10:20:48;;;;;;;6.10;4.28;;;;;;;33.51;28.25;99726.31;4445085;32;32062;-63
2022/08/03 10:23:17;;;;;;;6.60;4.23;;;;;;;33.22;29.60;99721.06;4449139;32;34192;-62
2022/08/03 10:25:47;;;;;;;5.72;4.18;;;;;;;33.14;29.12;99714.09;4464236;32;33882;-63
2022/08/03 10:28:18;;;;;;;8.23;3.85;;;;;;;33.42;28.72;99717.66;4460284;32;33351;-63
2022/08/03 10:30:50;;;;;;;5.72;4.22;;;;;;;33.30;28.33;99712.28;4456255;32;34022;-62
2022/08/03 10:33:21;;;;;;;7.62;4.37;;;;;;;33.50;27.71;99719.13;4449123;32;33535;-62
2022/08/03 10:36:09;;;;;;;7.78;3.95;;;;;;;33.39;27.98;99718.19;4455973;32;34130;-62
2022/08/03 10:38:45;;;;;;;6.25;4.35;;;;;;;33.43;28.72;99719.31;4433924;32;32001;-63
2022/08/03 10:41:15;;;;;;;6.60;4.32;;;;;;;33.45;29.60;99710.72;4457737;32;34928;-63
2022/08/03 10:43:49;;;;;;;7.37;4.47;;;;;;;33.92;27.83;99719.09;4460216;32;34089;-63
2022/08/03 10:46:19;;;;;;;8.52;4.30;;;;;;;33.83;28.06;99710.44;4460358;32;33912;-62
2022/08/03 10:48:48;;;;;;;5.20;3.75;;;;;;;33.24;28.38;99704.19;4457567;32;32086;-63
2022/08/03 10:51:16;;;;;;;8.68;4.43;;;;;;;33.85;27.83;99699.06;4447242;32;34999;-62
2022/08/03 10:53:44;;;;;;;6.90;3.85;;;;;;;34.38;26.90;99696.28;4464565;32;32722;-63
2022/08/03 10:59:45;;;;;;;6.30;3.35;;;;;;;34.50;26.37;99689.37;4469030;32;33473;-63
2022/08/03 11:02:14;;;;;;;7.62;3.75;;;;;;;33.92;26.45;99688.56;4457719;32;34015;-62
2022/08/03 11:04:43;;;;;;;4.68;3.20;;;;;;;34.14;25.94;99693.16;4445491;32;32430;-63
2022/08/03 11:07:14;;;;;;;5.97;3.83;;;;;;;34.13;26.04;99691.47;4449207;32;34100;-63
2022/08/03 11:09:46;;;;;;;6.12;3.60;;;;;;;34.44;25.45;99679.34;4445305;32;33299;-63
2022/08/03 11:12:23;;;;;;;5.50;3.10;;;;;;;34.56;25.05;99681.09;4454898;32;35169;-62
2022/08/03 11:15:00;;;;;;;6.87;3.25;;;;;;;34.83;24.66;99680.84;4441704;32;35896;-62
2022/08/03 11:17:28;;;;;;;5.55;3.03;;;;;;;34.70;23.86;99673.87;4463049;32;34410;-63
2022/08/03 11:19:56;;;;;;;4.37;2.70;;;;;;;34.91;23.33;99671.97;4452848;32;32137;-63
2022/08/03 11:22:49;;;;;;;5.85;2.85;;;;;;;35.12;23.12;99664.47;4442083;32;35002;-63
2022/08/03 11:25:17;;;;;;;3.83;2.33;;;;;;;35.12;23.49;99659.78;4461787;32;33535;-62
2022/08/03 11:28:24;;;;;;;5.12;2.83;;;;;;;35.10;23.12;99663.94;4454553;32;34160;-63
2022/08/03 11:30:51;;;;;;;4.85;2.83;;;;;;;35.26;22.77;99660.03;4441158;32;32969;-63
2022/08/03 11:33:29;;;;;;;11.65;3.03;;;;;;;35.45;22.97;99655.56;4463398;32;34947;-63
2022/08/03 11:35:59;;;;;;;5.40;3.28;;;;;;;35.34;23.17;99661.41;4455470;32;34024;-62
2022/08/03 11:38:27;;;;;;;7.43;3.17;;;;;;;35.28;22.92;99651.41;4459518;32;32733;-63
2022/08/03 11:40:54;;;;;;;4.35;2.85;;;;;;;35.21;23.15;99660.03;4464010;32;33237;-63
2022/08/03 11:43:22;;;;;;;6.07;3.37;;;;;;;35.09;23.48;99645.56;4465913;32;35057;-63
2022/08/03 11:45:59;;;;;;;5.15;3.20;;;;;;;35.15;24.06;99650.00;4442916;32;32636;-63
2022/08/03 11:48:32;;;;;;;7.05;3.80;;;;;;;34.57;24.52;99654.97;4444663;32;33313;-63
2022/08/03 11:51:05;;;;;;;6.37;3.70;;;;;;;34.16;24.75;99652.03;4455531;32;33359;-62
2022/08/03 11:53:33;;;;;;;5.57;3.25;;;;;;;34.81;24.51;99647.78;4458235;32;33213;-63
2022/08/03 11:56:08;;;;;;;6.80;3.60;;;;;;;34.34;24.81;99651.53;4454093;32;32769;-63
2022/08/03 11:58:47;;;;;;;4.53;3.00;;;;;;;34.11;25.65;99649.25;4465325;32;33491;-63
2022/08/03 12:01:36;;;;;;;5.18;3.10;;;;;;;33.78;25.19;99654.09;4459668;32;33566;-62
2022/08/03 12:04:05;;;;;;;4.95;3.20;;;;;;;33.89;25.10;99643.84;4459921;32;32805;-62
2022/08/03 12:09:18;;;;;;;5.82;3.22;;;;;;;33.24;26.42;99643.16;4456827;32;34613;-63